sensor_id;sensor_type;location;lat;lon;timestamp;P1;durP1;ratioP1;P2;durP2;ratioP2
66585;SDS011;53444;45.822;16.092;2022-10-16T00:00:20;45.17;;;21.55;;
66585;SDS011;53444;45.822;16.092;2022-10-16T00:02:47;47.50;;;22.40;;
66585;SDS011;53444;45.822;16.092;2022-10-16T00:05:14;43.57;;;23.90;;
66585;SDS011;53444;45.822;16.092;2022-10-16T00:07:41;41.15;;;23.38;;
66585;SDS011;53444;45.822;16.092;2022-10-16T00:10:07;47.78;;;24.85;;
66585;SDS011;53444;45.822;16.092;2022-10-16T00:12:36;48.85;;;25.65;;
66585;SDS011;53444;45.822;16.092;2022-10-16T00:15:02;50.83;;;26.15;;
66585;SDS011;53444;45.822;16.092;2022-10-16T00:17:30;44.07;;;24.43;;
66585;SDS011;53444;45.822;16.092;2022-10-16T00:19:57;42.80;;;25.05;;
66585;SDS011;53444;45.822;16.092;2022-10-16T00:22:23;43.28;;;22.58;;
66585;SDS011;53444;45.822;16.092;2022-10-16T00:24:50;42.47;;;22.48;;
66585;SDS011;53444;45.822;16.092;2022-10-16T00:27:17;47.97;;;24.52;;
66585;SDS011;53444;45.822;16.092;2022-10-16T00:29:49;43.67;;;22.93;;
66585;SDS011;53444;45.822;16.092;2022-10-16T00:32:15;39.47;;;22.58;;
66585;SDS011;53444;45.822;16.092;2022-10-16T00:34:42;41.85;;;22.92;;
66585;SDS011;53444;45.822;16.092;2022-10-16T00:37:09;44.35;;;23.20;;
66585;SDS011;53444;45.822;16.092;2022-10-16T00:39:36;41.78;;;23.65;;
66585;SDS011;53444;45.822;16.092;2022-10-16T00:42:03;44.50;;;23.47;;
66585;SDS011;53444;45.822;16.092;2022-10-16T00:44:43;42.45;;;23.33;;
66585;SDS011;53444;45.822;16.092;2022-10-16T00:47:15;39.83;;;22.20;;
66585;SDS011;53444;45.822;16.092;2022-10-16T00:49:45;42.65;;;22.40;;
66585;SDS011;53444;45.822;16.092;2022-10-16T00:52:14;41.90;;;23.35;;
66585;SDS011;53444;45.822;16.092;2022-10-16T00:54:40;40.30;;;22.27;;
66585;SDS011;53444;45.822;16.092;2022-10-16T00:57:07;39.75;;;22.20;;
66585;SDS011;53444;45.822;16.092;2022-10-16T00:59:35;43.60;;;24.30;;
66585;SDS011;53444;45.822;16.092;2022-10-16T01:02:05;43.95;;;23.63;;
66585;SDS011;53444;45.822;16.092;2022-10-16T01:04:34;43.15;;;23.83;;
66585;SDS011;53444;45.822;16.092;2022-10-16T01:07:04;45.13;;;23.73;;
66585;SDS011;53444;45.822;16.092;2022-10-16T01:09:37;39.53;;;22.63;;
66585;SDS011;53444;45.822;16.092;2022-10-16T01:12:19;40.33;;;22.60;;
66585;SDS011;53444;45.822;16.092;2022-10-16T01:14:53;46.60;;;22.80;;
66585;SDS011;53444;45.822;16.092;2022-10-16T01:17:27;50.08;;;27.50;;
66585;SDS011;53444;45.822;16.092;2022-10-16T01:20:01;52.70;;;26.07;;
66585;SDS011;53444;45.822;16.092;2022-10-16T01:22:36;52.75;;;26.48;;
66585;SDS011;53444;45.822;16.092;2022-10-16T01:25:09;51.40;;;25.92;;
66585;SDS011;53444;45.822;16.092;2022-10-16T01:27:44;50.10;;;25.92;;
66585;SDS011;53444;45.822;16.092;2022-10-16T01:30:15;44.33;;;24.42;;
66585;SDS011;53444;45.822;16.092;2022-10-16T01:32:45;45.53;;;24.80;;
66585;SDS011;53444;45.822;16.092;2022-10-16T01:35:17;48.15;;;25.45;;
66585;SDS011;53444;45.822;16.092;2022-10-16T01:37:48;49.45;;;25.52;;
66585;SDS011;53444;45.822;16.092;2022-10-16T01:40:20;52.85;;;25.73;;
66585;SDS011;53444;45.822;16.092;2022-10-16T01:42:53;48.72;;;24.95;;
66585;SDS011;53444;45.822;16.092;2022-10-16T01:45:24;46.53;;;23.07;;
66585;SDS011;53444;45.822;16.092;2022-10-16T01:47:53;47.25;;;23.98;;
66585;SDS011;53444;45.822;16.092;2022-10-16T01:50:21;58.95;;;26.17;;
66585;SDS011;53444;45.822;16.092;2022-10-16T01:52:49;50.67;;;26.65;;
66585;SDS011;53444;45.822;16.092;2022-10-16T01:55:21;50.97;;;27.00;;
66585;SDS011;53444;45.822;16.092;2022-10-16T01:57:50;49.87;;;26.43;;
66585;SDS011;53444;45.822;16.092;2022-10-16T02:00:20;60.83;;;28.42;;
66585;SDS011;53444;45.822;16.092;2022-10-16T02:02:49;53.72;;;28.92;;
66585;SDS011;53444;45.822;16.092;2022-10-16T02:05:19;62.10;;;30.42;;
66585;SDS011;53444;45.822;16.092;2022-10-16T02:07:48;69.15;;;30.83;;
66585;SDS011;53444;45.822;16.092;2022-10-16T02:10:15;57.30;;;29.80;;
66585;SDS011;53444;45.822;16.092;2022-10-16T02:12:44;69.68;;;31.23;;
66585;SDS011;53444;45.822;16.092;2022-10-16T02:15:17;73.53;;;30.52;;
66585;SDS011;53444;45.822;16.092;2022-10-16T02:17:43;64.82;;;29.23;;
66585;SDS011;53444;45.822;16.092;2022-10-16T02:20:10;60.03;;;29.33;;
66585;SDS011;53444;45.822;16.092;2022-10-16T02:22:38;59.83;;;28.80;;
66585;SDS011;53444;45.822;16.092;2022-10-16T02:25:08;54.28;;;28.38;;
66585;SDS011;53444;45.822;16.092;2022-10-16T02:27:38;56.92;;;28.17;;
66585;SDS011;53444;45.822;16.092;2022-10-16T02:30:11;66.50;;;28.73;;
66585;SDS011;53444;45.822;16.092;2022-10-16T02:32:44;58.03;;;27.02;;
66585;SDS011;53444;45.822;16.092;2022-10-16T02:35:14;52.53;;;24.50;;
66585;SDS011;53444;45.822;16.092;2022-10-16T02:37:43;57.97;;;26.85;;
66585;SDS011;53444;45.822;16.092;2022-10-16T02:40:11;53.35;;;27.70;;
66585;SDS011;53444;45.822;16.092;2022-10-16T02:42:39;56.40;;;28.17;;
66585;SDS011;53444;45.822;16.092;2022-10-16T02:45:07;55.80;;;27.00;;
66585;SDS011;53444;45.822;16.092;2022-10-16T02:47:35;55.60;;;28.93;;
66585;SDS011;53444;45.822;16.092;2022-10-16T02:50:04;54.58;;;27.98;;
66585;SDS011;53444;45.822;16.092;2022-10-16T02:52:31;64.07;;;28.77;;
66585;SDS011;53444;45.822;16.092;2022-10-16T02:54:57;65.55;;;27.27;;
66585;SDS011;53444;45.822;16.092;2022-10-16T02:57:24;55.83;;;27.27;;
66585;SDS011;53444;45.822;16.092;2022-10-16T02:59:51;54.90;;;26.13;;
66585;SDS011;53444;45.822;16.092;2022-10-16T03:02:17;53.40;;;27.13;;
66585;SDS011;53444;45.822;16.092;2022-10-16T03:04:44;54.33;;;27.52;;
66585;SDS011;53444;45.822;16.092;2022-10-16T03:07:12;64.65;;;28.38;;
66585;SDS011;53444;45.822;16.092;2022-10-16T03:09:39;61.15;;;28.52;;
66585;SDS011;53444;45.822;16.092;2022-10-16T03:12:05;73.63;;;30.63;;
66585;SDS011;53444;45.822;16.092;2022-10-16T03:14:33;58.45;;;28.35;;
66585;SDS011;53444;45.822;16.092;2022-10-16T03:16:59;60.58;;;29.50;;
66585;SDS011;53444;45.822;16.092;2022-10-16T03:19:26;69.20;;;30.02;;
66585;SDS011;53444;45.822;16.092;2022-10-16T03:21:52;57.20;;;30.05;;
66585;SDS011;53444;45.822;16.092;2022-10-16T03:24:20;61.87;;;28.90;;
66585;SDS011;53444;45.822;16.092;2022-10-16T03:26:47;61.08;;;28.60;;
66585;SDS011;53444;45.822;16.092;2022-10-16T03:29:14;61.33;;;28.80;;
66585;SDS011;53444;45.822;16.092;2022-10-16T03:31:40;56.80;;;30.42;;
66585;SDS011;53444;45.822;16.092;2022-10-16T03:34:07;59.40;;;30.17;;
66585;SDS011;53444;45.822;16.092;2022-10-16T03:36:34;64.73;;;30.73;;
66585;SDS011;53444;45.822;16.092;2022-10-16T03:39:00;56.80;;;30.02;;
66585;SDS011;53444;45.822;16.092;2022-10-16T03:41:28;62.20;;;31.02;;
66585;SDS011;53444;45.822;16.092;2022-10-16T03:43:55;63.03;;;30.00;;
66585;SDS011;53444;45.822;16.092;2022-10-16T03:46:22;71.65;;;30.45;;
66585;SDS011;53444;45.822;16.092;2022-10-16T03:48:48;63.87;;;29.17;;
66585;SDS011;53444;45.822;16.092;2022-10-16T03:51:15;56.72;;;28.55;;
66585;SDS011;53444;45.822;16.092;2022-10-16T03:53:42;61.42;;;29.92;;
66585;SDS011;53444;45.822;16.092;2022-10-16T03:56:08;61.00;;;29.40;;
66585;SDS011;53444;45.822;16.092;2022-10-16T03:58:36;61.92;;;28.65;;
66585;SDS011;53444;45.822;16.092;2022-10-16T04:01:03;57.37;;;28.53;;
66585;SDS011;53444;45.822;16.092;2022-10-16T04:03:30;56.08;;;26.90;;
66585;SDS011;53444;45.822;16.092;2022-10-16T04:05:56;51.83;;;26.95;;
66585;SDS011;53444;45.822;16.092;2022-10-16T04:08:23;54.88;;;27.27;;
66585;SDS011;53444;45.822;16.092;2022-10-16T04:10:50;53.35;;;26.67;;
66585;SDS011;53444;45.822;16.092;2022-10-16T04:13:16;53.00;;;26.23;;
66585;SDS011;53444;45.822;16.092;2022-10-16T04:15:45;53.00;;;28.15;;
66585;SDS011;53444;45.822;16.092;2022-10-16T04:18:12;52.72;;;27.27;;
66585;SDS011;53444;45.822;16.092;2022-10-16T04:20:39;60.42;;;26.20;;
66585;SDS011;53444;45.822;16.092;2022-10-16T04:23:05;49.67;;;26.38;;
66585;SDS011;53444;45.822;16.092;2022-10-16T04:25:32;54.23;;;25.23;;
66585;SDS011;53444;45.822;16.092;2022-10-16T04:27:58;54.80;;;26.75;;
66585;SDS011;53444;45.822;16.092;2022-10-16T04:30:25;56.10;;;26.80;;
66585;SDS011;53444;45.822;16.092;2022-10-16T04:32:53;50.30;;;25.10;;
66585;SDS011;53444;45.822;16.092;2022-10-16T04:35:20;49.90;;;25.83;;
66585;SDS011;53444;45.822;16.092;2022-10-16T04:37:47;46.67;;;26.03;;
66585;SDS011;53444;45.822;16.092;2022-10-16T04:40:15;52.15;;;26.65;;
66585;SDS011;53444;45.822;16.092;2022-10-16T04:42:42;63.70;;;26.83;;
66585;SDS011;53444;45.822;16.092;2022-10-16T04:45:09;52.85;;;25.75;;
66585;SDS011;53444;45.822;16.092;2022-10-16T04:47:36;46.17;;;26.15;;
66585;SDS011;53444;45.822;16.092;2022-10-16T04:50:05;50.60;;;25.67;;
66585;SDS011;53444;45.822;16.092;2022-10-16T04:52:32;57.80;;;26.13;;
66585;SDS011;53444;45.822;16.092;2022-10-16T04:54:59;47.35;;;25.05;;
66585;SDS011;53444;45.822;16.092;2022-10-16T04:57:27;50.17;;;25.13;;
66585;SDS011;53444;45.822;16.092;2022-10-16T04:59:54;47.78;;;23.88;;
66585;SDS011;53444;45.822;16.092;2022-10-16T05:02:21;43.33;;;22.90;;
66585;SDS011;53444;45.822;16.092;2022-10-16T05:04:48;45.47;;;23.42;;
66585;SDS011;53444;45.822;16.092;2022-10-16T05:07:16;39.30;;;23.77;;
66585;SDS011;53444;45.822;16.092;2022-10-16T05:09:43;43.90;;;23.42;;
66585;SDS011;53444;45.822;16.092;2022-10-16T05:12:10;41.25;;;22.23;;
66585;SDS011;53444;45.822;16.092;2022-10-16T05:14:37;44.90;;;22.30;;
66585;SDS011;53444;45.822;16.092;2022-10-16T05:17:03;42.60;;;23.63;;
66585;SDS011;53444;45.822;16.092;2022-10-16T05:19:30;41.42;;;23.23;;
66585;SDS011;53444;45.822;16.092;2022-10-16T05:21:57;38.80;;;21.55;;
66585;SDS011;53444;45.822;16.092;2022-10-16T05:24:25;38.03;;;21.80;;
66585;SDS011;53444;45.822;16.092;2022-10-16T05:26:52;39.23;;;20.13;;
66585;SDS011;53444;45.822;16.092;2022-10-16T05:29:19;35.90;;;19.05;;
66585;SDS011;53444;45.822;16.092;2022-10-16T05:31:46;32.05;;;19.67;;
66585;SDS011;53444;45.822;16.092;2022-10-16T05:34:12;34.03;;;19.05;;
66585;SDS011;53444;45.822;16.092;2022-10-16T05:36:39;33.05;;;19.70;;
66585;SDS011;53444;45.822;16.092;2022-10-16T05:39:06;34.23;;;18.83;;
66585;SDS011;53444;45.822;16.092;2022-10-16T05:41:34;38.00;;;19.45;;
66585;SDS011;53444;45.822;16.092;2022-10-16T05:44:03;36.40;;;18.83;;
66585;SDS011;53444;45.822;16.092;2022-10-16T05:46:30;35.55;;;20.05;;
66585;SDS011;53444;45.822;16.092;2022-10-16T05:48:58;55.50;;;20.15;;
66585;SDS011;53444;45.822;16.092;2022-10-16T05:51:24;32.47;;;19.23;;
66585;SDS011;53444;45.822;16.092;2022-10-16T05:53:51;35.90;;;20.50;;
66585;SDS011;53444;45.822;16.092;2022-10-16T05:56:19;32.50;;;20.08;;
66585;SDS011;53444;45.822;16.092;2022-10-16T05:58:47;37.22;;;20.20;;
66585;SDS011;53444;45.822;16.092;2022-10-16T06:01:14;32.63;;;19.98;;
66585;SDS011;53444;45.822;16.092;2022-10-16T06:03:42;38.43;;;19.03;;
66585;SDS011;53444;45.822;16.092;2022-10-16T06:06:09;37.85;;;20.30;;
66585;SDS011;53444;45.822;16.092;2022-10-16T06:08:39;34.80;;;19.77;;
66585;SDS011;53444;45.822;16.092;2022-10-16T06:11:07;32.15;;;18.02;;
66585;SDS011;53444;45.822;16.092;2022-10-16T06:13:35;31.63;;;18.50;;
66585;SDS011;53444;45.822;16.092;2022-10-16T06:16:04;34.07;;;18.63;;
66585;SDS011;53444;45.822;16.092;2022-10-16T06:18:31;30.80;;;18.38;;
66585;SDS011;53444;45.822;16.092;2022-10-16T06:20:58;34.33;;;19.52;;
66585;SDS011;53444;45.822;16.092;2022-10-16T06:23:25;31.95;;;18.70;;
66585;SDS011;53444;45.822;16.092;2022-10-16T06:25:54;33.63;;;18.88;;
66585;SDS011;53444;45.822;16.092;2022-10-16T06:28:29;31.60;;;18.43;;
66585;SDS011;53444;45.822;16.092;2022-10-16T06:30:58;34.47;;;18.83;;
66585;SDS011;53444;45.822;16.092;2022-10-16T06:33:27;33.35;;;18.77;;
66585;SDS011;53444;45.822;16.092;2022-10-16T06:35:53;35.78;;;19.55;;
66585;SDS011;53444;45.822;16.092;2022-10-16T06:38:20;33.97;;;18.45;;
66585;SDS011;53444;45.822;16.092;2022-10-16T06:40:47;35.73;;;19.07;;
66585;SDS011;53444;45.822;16.092;2022-10-16T06:43:13;36.10;;;20.63;;
66585;SDS011;53444;45.822;16.092;2022-10-16T06:45:40;34.85;;;19.55;;
66585;SDS011;53444;45.822;16.092;2022-10-16T06:48:06;35.78;;;19.48;;
66585;SDS011;53444;45.822;16.092;2022-10-16T06:50:34;38.92;;;20.08;;
66585;SDS011;53444;45.822;16.092;2022-10-16T06:53:01;36.03;;;20.07;;
66585;SDS011;53444;45.822;16.092;2022-10-16T06:55:28;41.90;;;21.75;;
66585;SDS011;53444;45.822;16.092;2022-10-16T06:57:54;40.88;;;21.27;;
66585;SDS011;53444;45.822;16.092;2022-10-16T07:00:21;38.55;;;19.95;;
66585;SDS011;53444;45.822;16.092;2022-10-16T07:02:48;39.97;;;21.30;;
66585;SDS011;53444;45.822;16.092;2022-10-16T07:05:15;40.67;;;22.10;;
66585;SDS011;53444;45.822;16.092;2022-10-16T07:07:43;42.72;;;21.00;;
66585;SDS011;53444;45.822;16.092;2022-10-16T07:10:10;49.85;;;20.70;;
66585;SDS011;53444;45.822;16.092;2022-10-16T07:12:36;40.30;;;20.30;;
66585;SDS011;53444;45.822;16.092;2022-10-16T07:15:03;38.20;;;20.70;;
66585;SDS011;53444;45.822;16.092;2022-10-16T07:17:31;45.90;;;20.63;;
66585;SDS011;53444;45.822;16.092;2022-10-16T07:19:59;38.22;;;20.60;;
66585;SDS011;53444;45.822;16.092;2022-10-16T07:22:27;42.15;;;21.92;;
66585;SDS011;53444;45.822;16.092;2022-10-16T07:24:55;47.38;;;23.17;;
66585;SDS011;53444;45.822;16.092;2022-10-16T07:27:22;44.65;;;21.55;;
66585;SDS011;53444;45.822;16.092;2022-10-16T07:29:49;43.87;;;20.63;;
66585;SDS011;53444;45.822;16.092;2022-10-16T07:32:16;37.35;;;21.15;;
66585;SDS011;53444;45.822;16.092;2022-10-16T07:34:42;40.53;;;21.15;;
66585;SDS011;53444;45.822;16.092;2022-10-16T07:37:09;40.35;;;20.42;;
66585;SDS011;53444;45.822;16.092;2022-10-16T07:39:35;47.33;;;21.45;;
66585;SDS011;53444;45.822;16.092;2022-10-16T07:42:04;40.40;;;20.53;;
66585;SDS011;53444;45.822;16.092;2022-10-16T07:44:31;43.85;;;21.52;;
66585;SDS011;53444;45.822;16.092;2022-10-16T07:46:57;41.72;;;20.25;;
66585;SDS011;53444;45.822;16.092;2022-10-16T07:49:24;37.92;;;20.60;;
66585;SDS011;53444;45.822;16.092;2022-10-16T07:51:51;42.05;;;20.42;;
66585;SDS011;53444;45.822;16.092;2022-10-16T07:54:17;40.80;;;21.03;;
66585;SDS011;53444;45.822;16.092;2022-10-16T07:56:44;39.50;;;20.05;;
66585;SDS011;53444;45.822;16.092;2022-10-16T07:59:12;45.67;;;20.65;;
66585;SDS011;53444;45.822;16.092;2022-10-16T08:01:39;42.92;;;21.00;;
66585;SDS011;53444;45.822;16.092;2022-10-16T08:04:07;42.38;;;20.77;;
66585;SDS011;53444;45.822;16.092;2022-10-16T08:06:35;54.10;;;21.80;;
66585;SDS011;53444;45.822;16.092;2022-10-16T08:09:02;42.15;;;21.40;;
66585;SDS011;53444;45.822;16.092;2022-10-16T08:11:29;42.00;;;21.58;;
66585;SDS011;53444;45.822;16.092;2022-10-16T08:13:56;41.63;;;21.85;;
66585;SDS011;53444;45.822;16.092;2022-10-16T08:16:24;37.67;;;20.02;;
66585;SDS011;53444;45.822;16.092;2022-10-16T08:18:50;38.47;;;19.47;;
66585;SDS011;53444;45.822;16.092;2022-10-16T08:21:17;35.40;;;19.58;;
66585;SDS011;53444;45.822;16.092;2022-10-16T08:23:45;37.17;;;20.15;;
66585;SDS011;53444;45.822;16.092;2022-10-16T08:26:12;35.85;;;17.60;;
66585;SDS011;53444;45.822;16.092;2022-10-16T08:28:39;36.17;;;19.15;;
66585;SDS011;53444;45.822;16.092;2022-10-16T08:31:07;42.30;;;19.50;;
66585;SDS011;53444;45.822;16.092;2022-10-16T08:33:36;38.65;;;19.85;;
66585;SDS011;53444;45.822;16.092;2022-10-16T08:36:04;40.78;;;20.17;;
66585;SDS011;53444;45.822;16.092;2022-10-16T08:38:31;39.17;;;20.65;;
66585;SDS011;53444;45.822;16.092;2022-10-16T08:41:01;37.72;;;19.95;;
66585;SDS011;53444;45.822;16.092;2022-10-16T08:43:50;46.47;;;22.03;;
66585;SDS011;53444;45.822;16.092;2022-10-16T08:46:31;40.13;;;19.60;;
66585;SDS011;53444;45.822;16.092;2022-10-16T08:49:09;37.38;;;19.90;;
66585;SDS011;53444;45.822;16.092;2022-10-16T08:51:38;36.00;;;19.27;;
66585;SDS011;53444;45.822;16.092;2022-10-16T08:54:06;39.35;;;19.48;;
66585;SDS011;53444;45.822;16.092;2022-10-16T08:56:47;43.47;;;21.50;;
66585;SDS011;53444;45.822;16.092;2022-10-16T08:59:13;40.60;;;21.60;;
66585;SDS011;53444;45.822;16.092;2022-10-16T09:01:43;44.60;;;22.23;;
66585;SDS011;53444;45.822;16.092;2022-10-16T09:04:23;40.72;;;20.92;;
66585;SDS011;53444;45.822;16.092;2022-10-16T09:07:12;42.17;;;21.80;;
66585;SDS011;53444;45.822;16.092;2022-10-16T09:09:55;46.47;;;22.90;;
66585;SDS011;53444;45.822;16.092;2022-10-16T09:12:32;53.03;;;23.80;;
66585;SDS011;53444;45.822;16.092;2022-10-16T09:15:17;41.72;;;20.83;;
66585;SDS011;53444;45.822;16.092;2022-10-16T09:17:53;42.90;;;21.50;;
66585;SDS011;53444;45.822;16.092;2022-10-16T09:20:32;38.03;;;20.73;;
66585;SDS011;53444;45.822;16.092;2022-10-16T09:23:14;42.47;;;21.60;;
66585;SDS011;53444;45.822;16.092;2022-10-16T09:25:43;40.88;;;21.35;;
66585;SDS011;53444;45.822;16.092;2022-10-16T09:28:12;41.80;;;22.17;;
66585;SDS011;53444;45.822;16.092;2022-10-16T09:30:39;37.67;;;20.95;;
66585;SDS011;53444;45.822;16.092;2022-10-16T09:33:06;37.50;;;20.20;;
66585;SDS011;53444;45.822;16.092;2022-10-16T09:35:37;43.73;;;22.83;;
66585;SDS011;53444;45.822;16.092;2022-10-16T09:38:06;43.97;;;22.33;;
66585;SDS011;53444;45.822;16.092;2022-10-16T09:40:34;43.80;;;22.30;;
66585;SDS011;53444;45.822;16.092;2022-10-16T09:43:07;40.88;;;21.40;;
66585;SDS011;53444;45.822;16.092;2022-10-16T09:45:53;39.38;;;21.08;;
66585;SDS011;53444;45.822;16.092;2022-10-16T09:48:23;40.83;;;21.63;;
66585;SDS011;53444;45.822;16.092;2022-10-16T09:50:57;34.28;;;19.25;;
66585;SDS011;53444;45.822;16.092;2022-10-16T09:53:25;43.22;;;22.88;;
66585;SDS011;53444;45.822;16.092;2022-10-16T09:56:04;37.83;;;21.20;;
66585;SDS011;53444;45.822;16.092;2022-10-16T09:58:32;38.28;;;21.10;;
66585;SDS011;53444;45.822;16.092;2022-10-16T10:00:59;41.60;;;20.80;;
66585;SDS011;53444;45.822;16.092;2022-10-16T10:03:31;40.60;;;21.00;;
66585;SDS011;53444;45.822;16.092;2022-10-16T10:06:05;37.53;;;20.45;;
66585;SDS011;53444;45.822;16.092;2022-10-16T10:08:52;40.65;;;20.85;;
66585;SDS011;53444;45.822;16.092;2022-10-16T10:11:39;38.95;;;21.02;;
66585;SDS011;53444;45.822;16.092;2022-10-16T10:14:22;39.40;;;20.47;;
66585;SDS011;53444;45.822;16.092;2022-10-16T10:16:51;49.47;;;28.90;;
66585;SDS011;53444;45.822;16.092;2022-10-16T10:19:20;37.25;;;22.13;;
66585;SDS011;53444;45.822;16.092;2022-10-16T10:21:50;40.55;;;22.33;;
66585;SDS011;53444;45.822;16.092;2022-10-16T10:24:18;51.38;;;30.95;;
66585;SDS011;53444;45.822;16.092;2022-10-16T10:26:54;53.80;;;28.27;;
66585;SDS011;53444;45.822;16.092;2022-10-16T10:29:36;52.67;;;28.42;;
66585;SDS011;53444;45.822;16.092;2022-10-16T10:32:13;41.33;;;23.38;;
66585;SDS011;53444;45.822;16.092;2022-10-16T10:34:51;37.25;;;20.70;;
66585;SDS011;53444;45.822;16.092;2022-10-16T10:37:33;33.50;;;18.83;;
66585;SDS011;53444;45.822;16.092;2022-10-16T10:40:13;32.10;;;18.77;;
66585;SDS011;53444;45.822;16.092;2022-10-16T10:42:46;32.88;;;19.63;;
66585;SDS011;53444;45.822;16.092;2022-10-16T10:45:22;32.40;;;20.27;;
66585;SDS011;53444;45.822;16.092;2022-10-16T10:47:56;32.83;;;19.48;;
66585;SDS011;53444;45.822;16.092;2022-10-16T10:50:39;34.75;;;19.20;;
66585;SDS011;53444;45.822;16.092;2022-10-16T10:53:11;35.70;;;19.53;;
66585;SDS011;53444;45.822;16.092;2022-10-16T10:55:59;32.40;;;19.33;;
66585;SDS011;53444;45.822;16.092;2022-10-16T10:58:50;36.42;;;19.88;;
66585;SDS011;53444;45.822;16.092;2022-10-16T11:01:30;33.38;;;19.67;;
66585;SDS011;53444;45.822;16.092;2022-10-16T11:04:07;32.15;;;19.65;;
66585;SDS011;53444;45.822;16.092;2022-10-16T11:06:47;32.27;;;18.67;;
66585;SDS011;53444;45.822;16.092;2022-10-16T11:09:19;39.28;;;21.25;;
66585;SDS011;53444;45.822;16.092;2022-10-16T11:11:51;39.25;;;21.63;;
66585;SDS011;53444;45.822;16.092;2022-10-16T11:14:21;35.13;;;20.00;;
66585;SDS011;53444;45.822;16.092;2022-10-16T11:16:52;36.75;;;21.27;;
66585;SDS011;53444;45.822;16.092;2022-10-16T11:19:26;31.13;;;19.60;;
66585;SDS011;53444;45.822;16.092;2022-10-16T11:22:01;34.58;;;19.55;;
66585;SDS011;53444;45.822;16.092;2022-10-16T11:24:42;30.63;;;19.95;;
66585;SDS011;53444;45.822;16.092;2022-10-16T11:27:14;35.95;;;22.63;;
66585;SDS011;53444;45.822;16.092;2022-10-16T11:29:46;33.30;;;21.42;;
66585;SDS011;53444;45.822;16.092;2022-10-16T11:32:20;28.50;;;16.73;;
66585;SDS011;53444;45.822;16.092;2022-10-16T11:34:50;29.95;;;17.77;;
66585;SDS011;53444;45.822;16.092;2022-10-16T11:37:20;28.90;;;18.90;;
66585;SDS011;53444;45.822;16.092;2022-10-16T11:39:54;28.20;;;17.55;;
66585;SDS011;53444;45.822;16.092;2022-10-16T11:42:26;27.20;;;17.63;;
66585;SDS011;53444;45.822;16.092;2022-10-16T11:45:00;27.60;;;17.60;;
66585;SDS011;53444;45.822;16.092;2022-10-16T11:47:34;28.98;;;18.10;;
66585;SDS011;53444;45.822;16.092;2022-10-16T11:50:04;29.27;;;17.40;;
66585;SDS011;53444;45.822;16.092;2022-10-16T11:52:40;25.60;;;16.63;;
66585;SDS011;53444;45.822;16.092;2022-10-16T11:55:15;27.70;;;17.55;;
66585;SDS011;53444;45.822;16.092;2022-10-16T11:57:44;27.87;;;18.40;;
66585;SDS011;53444;45.822;16.092;2022-10-16T12:00:20;30.55;;;18.85;;
66585;SDS011;53444;45.822;16.092;2022-10-16T12:02:52;27.08;;;17.85;;
66585;SDS011;53444;45.822;16.092;2022-10-16T12:05:27;26.00;;;17.13;;
66585;SDS011;53444;45.822;16.092;2022-10-16T12:08:03;29.33;;;18.10;;
66585;SDS011;53444;45.822;16.092;2022-10-16T12:10:35;27.03;;;17.50;;
66585;SDS011;53444;45.822;16.092;2022-10-16T12:13:03;27.73;;;18.08;;
66585;SDS011;53444;45.822;16.092;2022-10-16T12:15:31;26.48;;;18.33;;
66585;SDS011;53444;45.822;16.092;2022-10-16T12:17:59;29.15;;;18.23;;
66585;SDS011;53444;45.822;16.092;2022-10-16T12:20:27;28.75;;;18.27;;
66585;SDS011;53444;45.822;16.092;2022-10-16T12:22:57;28.17;;;17.90;;
66585;SDS011;53444;45.822;16.092;2022-10-16T12:25:26;26.83;;;17.27;;
66585;SDS011;53444;45.822;16.092;2022-10-16T12:27:57;27.90;;;18.65;;
66585;SDS011;53444;45.822;16.092;2022-10-16T12:30:26;29.77;;;19.65;;
66585;SDS011;53444;45.822;16.092;2022-10-16T12:32:55;25.77;;;17.35;;
66585;SDS011;53444;45.822;16.092;2022-10-16T12:35:25;25.93;;;17.30;;
66585;SDS011;53444;45.822;16.092;2022-10-16T12:37:54;25.08;;;16.45;;
66585;SDS011;53444;45.822;16.092;2022-10-16T12:40:35;30.30;;;18.33;;
66585;SDS011;53444;45.822;16.092;2022-10-16T12:43:12;24.70;;;17.33;;
66585;SDS011;53444;45.822;16.092;2022-10-16T12:46:01;23.33;;;16.13;;
66585;SDS011;53444;45.822;16.092;2022-10-16T12:48:30;27.70;;;17.63;;
66585;SDS011;53444;45.822;16.092;2022-10-16T12:50:57;24.85;;;15.85;;
66585;SDS011;53444;45.822;16.092;2022-10-16T12:53:35;24.05;;;15.80;;
66585;SDS011;53444;45.822;16.092;2022-10-16T12:56:04;26.63;;;17.17;;
66585;SDS011;53444;45.822;16.092;2022-10-16T12:58:50;27.55;;;17.10;;
66585;SDS011;53444;45.822;16.092;2022-10-16T13:01:32;23.10;;;16.53;;
66585;SDS011;53444;45.822;16.092;2022-10-16T13:04:11;23.80;;;16.40;;
66585;SDS011;53444;45.822;16.092;2022-10-16T13:07:03;27.75;;;16.90;;
66585;SDS011;53444;45.822;16.092;2022-10-16T13:09:46;21.90;;;15.45;;
66585;SDS011;53444;45.822;16.092;2022-10-16T13:12:25;25.13;;;15.50;;
66585;SDS011;53444;45.822;16.092;2022-10-16T13:15:08;22.60;;;14.67;;
66585;SDS011;53444;45.822;16.092;2022-10-16T13:17:48;22.25;;;14.82;;
66585;SDS011;53444;45.822;16.092;2022-10-16T13:20:21;21.90;;;15.52;;
66585;SDS011;53444;45.822;16.092;2022-10-16T13:22:59;24.23;;;15.35;;
66585;SDS011;53444;45.822;16.092;2022-10-16T13:25:36;21.50;;;15.45;;
66585;SDS011;53444;45.822;16.092;2022-10-16T13:28:11;22.30;;;14.70;;
66585;SDS011;53444;45.822;16.092;2022-10-16T13:30:41;25.20;;;15.02;;
66585;SDS011;53444;45.822;16.092;2022-10-16T13:33:13;21.50;;;15.80;;
66585;SDS011;53444;45.822;16.092;2022-10-16T13:35:47;23.63;;;15.35;;
66585;SDS011;53444;45.822;16.092;2022-10-16T13:38:16;24.25;;;15.73;;
66585;SDS011;53444;45.822;16.092;2022-10-16T13:40:51;22.03;;;14.00;;
66585;SDS011;53444;45.822;16.092;2022-10-16T13:43:20;23.10;;;15.60;;
66585;SDS011;53444;45.822;16.092;2022-10-16T13:45:55;22.25;;;14.88;;
66585;SDS011;53444;45.822;16.092;2022-10-16T13:48:22;22.33;;;14.45;;
66585;SDS011;53444;45.822;16.092;2022-10-16T13:51:02;21.38;;;15.00;;
66585;SDS011;53444;45.822;16.092;2022-10-16T13:53:32;21.03;;;14.73;;
66585;SDS011;53444;45.822;16.092;2022-10-16T13:56:01;23.23;;;15.73;;
66585;SDS011;53444;45.822;16.092;2022-10-16T13:58:30;21.30;;;15.45;;
66585;SDS011;53444;45.822;16.092;2022-10-16T14:00:59;21.52;;;15.40;;
66585;SDS011;53444;45.822;16.092;2022-10-16T14:03:27;21.25;;;15.43;;
66585;SDS011;53444;45.822;16.092;2022-10-16T14:05:55;20.13;;;14.37;;
66585;SDS011;53444;45.822;16.092;2022-10-16T14:08:24;19.08;;;14.13;;
66585;SDS011;53444;45.822;16.092;2022-10-16T14:10:52;21.38;;;15.52;;
66585;SDS011;53444;45.822;16.092;2022-10-16T14:13:24;18.73;;;14.18;;
66585;SDS011;53444;45.822;16.092;2022-10-16T14:15:56;22.60;;;14.93;;
66585;SDS011;53444;45.822;16.092;2022-10-16T14:18:25;19.47;;;14.20;;
66585;SDS011;53444;45.822;16.092;2022-10-16T14:20:53;25.08;;;16.35;;
66585;SDS011;53444;45.822;16.092;2022-10-16T14:23:21;20.00;;;14.88;;
66585;SDS011;53444;45.822;16.092;2022-10-16T14:25:51;19.40;;;14.38;;